sensor_id;sensor_type;location;lat;lon;timestamp;pressure;altitude;pressure_sealevel;temperature;humidity
36354;BME280;22383;51.114;13.666;2023-01-29T00:02:11;66814.53;;;-3.47;100.00
36354;BME280;22383;51.114;13.666;2023-01-29T00:04:39;66812.50;;;-3.46;100.00
36354;BME280;22383;51.114;13.666;2023-01-29T00:07:06;66813.97;;;-3.47;100.00
36354;BME280;22383;51.114;13.666;2023-01-29T00:09:34;66816.56;;;-3.47;100.00
36354;BME280;22383;51.114;13.666;2023-01-29T00:12:02;66812.84;;;-3.48;100.00
36354;BME280;22383;51.114;13.666;2023-01-29T00:14:29;66813.97;;;-3.47;100.00
36354;BME280;22383;51.114;13.666;2023-01-29T00:16:56;66811.16;;;-3.50;100.00
36354;BME280;22383;51.114;13.666;2023-01-29T00:19:24;66812.84;;;-3.48;100.00
36354;BME280;22383;51.114;13.666;2023-01-29T00:21:51;66810.63;;;-3.50;100.00
36354;BME280;22383;51.114;13.666;2023-01-29T00:24:18;66812.06;;;-3.51;100.00
36354;BME280;22383;51.114;13.666;2023-01-29T00:26:46;66806.69;;;-3.54;100.00
36354;BME280;22383;51.114;13.666;2023-01-29T00:29:16;66810.75;;;-3.55;100.00
36354;BME280;22383;51.114;13.666;2023-01-29T00:31:44;66806.13;;;-3.54;100.00
36354;BME280;22383;51.114;13.666;2023-01-29T00:34:12;66763.06;;;-3.56;100.00
36354;BME280;22383;51.114;13.666;2023-01-29T00:36:39;66808.16;;;-3.55;100.00
36354;BME280;22383;51.114;13.666;2023-01-29T00:39:07;66809.06;;;-3.56;100.00
36354;BME280;22383;51.114;13.666;2023-01-29T00:41:37;66806.47;;;-3.56;100.00
36354;BME280;22383;51.114;13.666;2023-01-29T00:44:23;66804.44;;;-3.56;100.00
36354;BME280;22383;51.114;13.666;2023-01-29T00:47:09;66797.94;;;-3.59;100.00
36354;BME280;22383;51.114;13.666;2023-01-29T00:49:55;66805.00;;;-3.55;100.00
36354;BME280;22383;51.114;13.666;2023-01-29T00:52:23;66808.72;;;-3.54;100.00
36354;BME280;22383;51.114;13.666;2023-01-29T00:54:51;66805.78;;;-3.52;100.00
36354;BME280;22383;51.114;13.666;2023-01-29T00:57:19;66812.06;;;-3.51;100.00
36354;BME280;22383;51.114;13.666;2023-01-29T00:59:46;66807.59;;;-3.55;100.00
36354;BME280;22383;51.114;13.666;2023-01-29T01:02:14;66811.28;;;-3.54;100.00
36354;BME280;22383;51.114;13.666;2023-01-29T01:05:00;66804.78;;;-3.58;100.00
36354;BME280;22383;51.114;13.666;2023-01-29T01:07:32;66805.91;;;-3.57;100.00
36354;BME280;22383;51.114;13.666;2023-01-29T01:09:59;66802.56;;;-3.60;100.00
36354;BME280;22383;51.114;13.666;2023-01-29T01:13:06;66809.06;;;-3.56;100.00
36354;BME280;22383;51.114;13.666;2023-01-29T01:15:38;66799.97;;;-3.60;100.00
36354;BME280;22383;51.114;13.666;2023-01-29T01:18:06;66801.44;;;-3.61;100.00
36354;BME280;22383;51.114;13.666;2023-01-29T01:20:35;66802.00;;;-3.61;100.00
36354;BME280;22383;51.114;13.666;2023-01-29T01:23:02;66800.88;;;-3.62;100.00
36354;BME280;22383;51.114;13.666;2023-01-29T01:25:30;66799.19;;;-3.63;100.00
36354;BME280;22383;51.114;13.666;2023-01-29T01:27:58;66799.41;;;-3.61;100.00
36354;BME280;22383;51.114;13.666;2023-01-29T01:30:25;66798.63;;;-3.64;100.00
36354;BME280;22383;51.114;13.666;2023-01-29T01:32:54;66791.78;;;-3.65;100.00
36354;BME280;22383;51.114;13.666;2023-01-29T01:35:21;66793.25;;;-3.66;100.00
36354;BME280;22383;51.114;13.666;2023-01-29T01:37:49;66793.25;;;-3.66;100.00
36354;BME280;22383;51.114;13.666;2023-01-29T01:40:20;66789.88;;;-3.69;100.00
36354;BME280;22383;51.114;13.666;2023-01-29T01:42:51;66790.44;;;-3.69;100.00
36354;BME280;22383;51.114;13.666;2023-01-29T01:45:39;66792.47;;;-3.69;100.00
36354;BME280;22383;51.114;13.666;2023-01-29T01:48:16;66788.56;;;-3.73;100.00
36354;BME280;22383;51.114;13.666;2023-01-29T01:50:59;66786.31;;;-3.75;100.00
36354;BME280;22383;51.114;13.666;2023-01-29T01:56:02;66780.91;;;-3.77;100.00
36354;BME280;22383;51.114;13.666;2023-01-29T01:58:35;66779.47;;;-3.76;100.00
36354;BME280;22383;51.114;13.666;2023-01-29T02:01:06;66779.03;;;-3.82;100.00
36354;BME280;22383;51.114;13.666;2023-01-29T02:03:43;66775.66;;;-3.85;100.00
36354;BME280;22383;51.114;13.666;2023-01-29T02:06:31;66776.03;;;-3.87;100.00
36354;BME280;22383;51.114;13.666;2023-01-29T02:09:22;66769.16;;;-3.88;100.00
36354;BME280;22383;51.114;13.666;2023-01-29T02:12:09;66767.84;;;-3.92;100.00
36354;BME280;22383;51.114;13.666;2023-01-29T02:14:39;66761.69;;;-3.97;100.00
36354;BME280;22383;51.114;13.666;2023-01-29T02:17:09;66754.94;;;-4.04;100.00
36354;BME280;22383;51.114;13.666;2023-01-29T02:28:35;66731.31;;;-4.21;100.00
36354;BME280;22383;51.114;13.666;2023-01-29T02:31:28;66733.69;;;-4.23;100.00
36354;BME280;22383;51.114;13.666;2023-01-29T02:36:56;66710.94;;;-4.42;100.00
36354;BME280;22383;51.114;13.666;2023-01-29T02:44:47;66709.03;;;-4.46;100.00
36354;BME280;22383;51.114;13.666;2023-01-29T02:47:29;66707.94;;;-4.47;100.00
36354;BME280;22383;51.114;13.666;2023-01-29T02:50:03;66701.09;;;-4.48;100.00
36354;BME280;22383;51.114;13.666;2023-01-29T02:52:35;66701.22;;;-4.53;100.00
36354;BME280;22383;51.114;13.666;2023-01-29T02:55:12;66652.84;;;-4.57;100.00
36354;BME280;22383;51.114;13.666;2023-01-29T02:57:43;66694.16;;;-4.57;100.00
36354;BME280;22383;51.114;13.666;2023-01-29T03:00:16;66702.13;;;-4.54;100.00
36354;BME280;22383;51.114;13.666;2023-01-29T03:02:58;66689.66;;;-4.61;100.00
36354;BME280;22383;51.114;13.666;2023-01-29T03:05:44;66686.31;;;-4.64;100.00
36354;BME280;22383;51.114;13.666;2023-01-29T03:08:24;66688.56;;;-4.62;100.00
36354;BME280;22383;51.114;13.666;2023-01-29T03:11:05;66691.94;;;-4.59;100.00
36354;BME280;22383;51.114;13.666;2023-01-29T03:13:55;66694.72;;;-4.57;100.00
36354;BME280;22383;51.114;13.666;2023-01-29T03:16:31;66701.00;;;-4.56;100.00
36354;BME280;22383;51.114;13.666;2023-01-29T03:19:04;66696.75;;;-4.57;100.00
36354;BME280;22383;51.114;13.666;2023-01-29T03:21:38;66698.97;;;-4.55;100.00
36354;BME280;22383;51.114;13.666;2023-01-29T03:24:36;66694.72;;;-4.57;100.00
36354;BME280;22383;51.114;13.666;2023-01-29T03:27:30;66697.28;;;-4.57;100.00
36354;BME280;22383;51.114;13.666;2023-01-29T03:30:18;66684.06;;;-4.66;100.00
36354;BME280;22383;51.114;13.666;2023-01-29T03:33:25;66675.13;;;-4.75;100.00
36354;BME280;22383;51.114;13.666;2023-01-29T03:36:07;66669.88;;;-4.82;100.00
36354;BME280;22383;51.114;13.666;2023-01-29T03:38:36;66674.69;;;-4.80;100.00
36354;BME280;22383;51.114;13.666;2023-01-29T03:41:16;66665.06;;;-4.84;100.00
36354;BME280;22383;51.114;13.666;2023-01-29T03:46:49;66662.81;;;-4.86;100.00
36354;BME280;22383;51.114;13.666;2023-01-29T03:53:04;66667.66;;;-4.84;100.00
36354;BME280;22383;51.114;13.666;2023-01-29T04:00:18;66647.72;;;-5.00;100.00
36354;BME280;22383;51.114;13.666;2023-01-29T04:03:07;66654.00;;;-4.99;100.00
36354;BME280;22383;51.114;13.666;2023-01-29T04:05:49;66648.28;;;-4.99;100.00
36354;BME280;22383;51.114;13.666;2023-01-29T04:08:29;66653.09;;;-4.97;100.00
36354;BME280;22383;51.114;13.666;2023-01-29T04:11:06;66649.38;;;-4.98;100.00
36354;BME280;22383;51.114;13.666;2023-01-29T04:13:36;66651.63;;;-4.96;100.00
36354;BME280;22383;51.114;13.666;2023-01-29T04:16:06;66662.59;;;-4.88;100.00
36354;BME280;22383;51.114;13.666;2023-01-29T04:19:00;66669.31;;;-4.82;100.00
36354;BME280;22383;51.114;13.666;2023-01-29T04:21:33;66667.84;;;-4.81;100.00
36354;BME280;22383;51.114;13.666;2023-01-29T04:24:05;66664.06;;;-4.89;100.00
36354;BME280;22383;51.114;13.666;2023-01-29T04:26:59;66657.00;;;-4.94;100.00
36354;BME280;22383;51.114;13.666;2023-01-29T04:32:36;66664.63;;;-4.89;100.00
36354;BME280;22383;51.114;13.666;2023-01-29T04:35:42;66659.78;;;-4.91;100.00
36354;BME280;22383;51.114;13.666;2023-01-29T04:41:05;66657.00;;;-4.94;100.00
36354;BME280;22383;51.114;13.666;2023-01-29T04:43:41;66658.47;;;-4.95;100.00
36354;BME280;22383;51.114;13.666;2023-01-29T04:51:35;66655.56;;;-4.92;100.00
36354;BME280;22383;51.114;13.666;2023-01-29T04:59:43;66654.09;;;-4.91;100.00
36354;BME280;22383;51.114;13.666;2023-01-29T05:02:13;66653.31;;;-4.95;100.00
36354;BME280;22383;51.114;13.666;2023-01-29T05:04:42;66650.84;;;-4.99;100.00
36354;BME280;22383;51.114;13.666;2023-01-29T05:07:13;66645.25;;;-5.04;100.00
36354;BME280;22383;51.114;13.666;2023-01-29T05:09:43;66637.66;;;-5.09;100.00
36354;BME280;22383;51.114;13.666;2023-01-29T05:12:13;66650.28;;;-5.00;100.00
36354;BME280;22383;51.114;13.666;2023-01-29T05:14:43;66642.13;;;-5.05;100.00
36354;BME280;22383;51.114;13.666;2023-01-29T05:17:15;66642.13;;;-5.05;100.00
36354;BME280;22383;51.114;13.666;2023-01-29T05:19:44;66640.66;;;-5.04;100.00
36354;BME280;22383;51.114;13.666;2023-01-29T05:22:15;66634.28;;;-5.12;100.00
36354;BME280;22383;51.114;13.666;2023-01-29T05:24:43;66639.31;;;-5.07;100.00
36354;BME280;22383;51.114;13.666;2023-01-29T05:27:33;66646.72;;;-5.05;100.00
36354;BME280;22383;51.114;13.666;2023-01-29T05:30:20;66634.06;;;-5.15;100.00
36354;BME280;22383;51.114;13.666;2023-01-29T05:32:48;66592.47;;;-5.13;100.00
36354;BME280;22383;51.114;13.666;2023-01-29T05:35:16;66632.63;;;-5.14;100.00
36354;BME280;22383;51.114;13.666;2023-01-29T05:37:43;66629.47;;;-5.14;100.00
36354;BME280;22383;51.114;13.666;2023-01-29T05:40:11;66635.97;;;-5.10;100.00
36354;BME280;22383;51.114;13.666;2023-01-29T05:42:42;66637.09;;;-5.09;100.00
36354;BME280;22383;51.114;13.666;2023-01-29T05:45:09;66635.97;;;-5.10;100.00
36354;BME280;22383;51.114;13.666;2023-01-29T05:47:37;66634.06;;;-5.15;100.00
36354;BME280;22383;51.114;13.666;2023-01-29T05:50:05;66630.94;;;-5.15;100.00
36354;BME280;22383;51.114;13.666;2023-01-29T05:52:33;66640.22;;;-5.09;100.00
36354;BME280;22383;51.114;13.666;2023-01-29T05:55:00;66654.00;;;-4.99;100.00
36354;BME280;22383;51.114;13.666;2023-01-29T05:57:28;66654.19;;;-4.96;100.00
36354;BME280;22383;51.114;13.666;2023-01-29T05:59:55;66661.28;;;-4.92;100.00
36354;BME280;22383;51.114;13.666;2023-01-29T06:02:23;66663.38;;;-4.85;100.00
36354;BME280;22383;51.114;13.666;2023-01-29T06:04:51;66664.50;;;-4.84;100.00
36354;BME280;22383;51.114;13.666;2023-01-29T06:07:21;66662.25;;;-4.86;100.00
36354;BME280;22383;51.114;13.666;2023-01-29T06:09:48;66667.31;;;-4.82;100.00
36354;BME280;22383;51.114;13.666;2023-01-29T06:12:16;66665.06;;;-4.84;100.00
36354;BME280;22383;51.114;13.666;2023-01-29T06:14:44;66616.16;;;-4.88;100.00
36354;BME280;22383;51.114;13.666;2023-01-29T06:17:11;66667.66;;;-4.84;100.00
36354;BME280;22383;51.114;13.666;2023-01-29T06:19:38;66668.41;;;-4.81;100.00
36354;BME280;22383;51.114;13.666;2023-01-29T06:22:06;66666.72;;;-4.82;100.00
36354;BME280;22383;51.114;13.666;2023-01-29T06:24:33;66667.84;;;-4.81;100.00
36354;BME280;22383;51.114;13.666;2023-01-29T06:27:00;66670.44;;;-4.81;100.00
36354;BME280;22383;51.114;13.666;2023-01-29T06:29:28;66672.66;;;-4.79;100.00
36354;BME280;22383;51.114;13.666;2023-01-29T06:31:55;66674.34;;;-4.78;100.00
36354;BME280;22383;51.114;13.666;2023-01-29T06:34:23;66675.25;;;-4.79;100.00
36354;BME280;22383;51.114;13.666;2023-01-29T06:36:50;66676.94;;;-4.78;100.00
36354;BME280;22383;51.114;13.666;2023-01-29T06:39:18;66677.47;;;-4.77;100.00
36354;BME280;22383;51.114;13.666;2023-01-29T06:41:45;66676.59;;;-4.76;100.00
36354;BME280;22383;51.114;13.666;2023-01-29T06:44:13;66674.00;;;-4.76;100.00
36354;BME280;22383;51.114;13.666;2023-01-29T06:46:40;66676.81;;;-4.73;100.00
36354;BME280;22383;51.114;13.666;2023-01-29T06:49:07;66676.47;;;-4.71;100.00
36354;BME280;22383;51.114;13.666;2023-01-29T06:51:35;66682.19;;;-4.70;100.00
36354;BME280;22383;51.114;13.666;2023-01-29T06:54:02;66687.56;;;-4.68;100.00
36354;BME280;22383;51.114;13.666;2023-01-29T06:56:30;66686.09;;;-4.67;100.00
36354;BME280;22383;51.114;13.666;2023-01-29T06:58:58;66686.66;;;-4.66;100.00
36354;BME280;22383;51.114;13.666;2023-01-29T07:01:26;66689.47;;;-4.64;100.00
36354;BME280;22383;51.114;13.666;2023-01-29T07:04:02;66686.88;;;-4.64;100.00
36354;BME280;22383;51.114;13.666;2023-01-29T07:06:30;66692.81;;;-4.61;100.00
36354;BME280;22383;51.114;13.666;2023-01-29T07:08:58;66691.94;;;-4.59;100.00
36354;BME280;22383;51.114;13.666;2023-01-29T07:11:25;66696.50;;;-4.60;100.00
36354;BME280;22383;51.114;13.666;2023-01-29T07:13:53;66697.84;;;-4.56;100.00
36354;BME280;22383;51.114;13.666;2023-01-29T07:16:20;66696.41;;;-4.55;100.00
36354;BME280;22383;51.114;13.666;2023-01-29T07:18:47;66700.66;;;-4.53;100.00
36354;BME280;22383;51.114;13.666;2023-01-29T07:21:15;66702.34;;;-4.52;100.00
36354;BME280;22383;51.114;13.666;2023-01-29T07:23:46;66703.66;;;-4.48;100.00
36354;BME280;22383;51.114;13.666;2023-01-29T07:26:13;66704.56;;;-4.50;100.00
36354;BME280;22383;51.114;13.666;2023-01-29T07:28:41;66705.69;;;-4.49;100.00
36354;BME280;22383;51.114;13.666;2023-01-29T07:31:11;66710.94;;;-4.42;100.00
36354;BME280;22383;51.114;13.666;2023-01-29T07:33:41;66710.94;;;-4.42;100.00
36354;BME280;22383;51.114;13.666;2023-01-29T07:36:10;66715.41;;;-4.38;100.00
36354;BME280;22383;51.114;13.666;2023-01-29T07:38:38;66719.13;;;-4.37;100.00
36354;BME280;22383;51.114;13.666;2023-01-29T07:41:06;66717.66;;;-4.35;100.00
36354;BME280;22383;51.114;13.666;2023-01-29T07:43:33;66718.56;;;-4.37;100.00
36354;BME280;22383;51.114;13.666;2023-01-29T07:46:02;66721.94;;;-4.34;100.00
36354;BME280;22383;51.114;13.666;2023-01-29T07:48:30;66730.66;;;-4.28;100.00
36354;BME280;22383;51.114;13.666;2023-01-29T07:50:58;66732.34;;;-4.27;100.00
36354;BME280;22383;51.114;13.666;2023-01-29T07:53:27;66732.22;;;-4.22;100.00
36354;BME280;22383;51.114;13.666;2023-01-29T07:55:55;66730.19;;;-4.22;100.00
36354;BME280;22383;51.114;13.666;2023-01-29T07:58:22;66741.75;;;-4.13;100.00
36354;BME280;22383;51.114;13.666;2023-01-29T08:00:51;66749.00;;;-4.07;100.00
36354;BME280;22383;51.114;13.666;2023-01-29T08:03:19;66763.13;;;-3.99;100.00
36354;BME280;22383;51.114;13.666;2023-01-29T08:05:47;66758.66;;;-4.03;100.00
36354;BME280;22383;51.114;13.666;2023-01-29T08:08:15;66758.88;;;-4.00;100.00
36354;BME280;22383;51.114;13.666;2023-01-29T08:10:42;66768.25;;;-3.87;100.00
36354;BME280;22383;51.114;13.666;2023-01-29T08:13:10;66776.22;;;-3.84;100.00
36354;BME280;22383;51.114;13.666;2023-01-29T08:15:37;66776.03;;;-3.87;100.00
36354;BME280;22383;51.114;13.666;2023-01-29T08:18:05;66780.50;;;-3.83;100.00
36354;BME280;22383;51.114;13.666;2023-01-29T08:20:32;66791.00;;;-3.68;100.00
36354;BME280;22383;51.114;13.666;2023-01-29T08:23:04;66793.25;;;-3.66;100.00
36354;BME280;22383;51.114;13.666;2023-01-29T08:25:32;66796.41;;;-3.66;100.00
36354;BME280;22383;51.114;13.666;2023-01-29T08:28:00;66780.56;;;-3.75;100.00
36354;BME280;22383;51.114;13.666;2023-01-29T08:30:28;66781.28;;;-3.80;100.00
36354;BME280;22383;51.114;13.666;2023-01-29T08:32:58;66782.41;;;-3.78;100.00
36354;BME280;22383;51.114;13.666;2023-01-29T08:35:26;66787.66;;;-3.71;100.00
36354;BME280;22383;51.114;13.666;2023-01-29T08:37:54;66794.91;;;-3.65;100.00
36354;BME280;22383;51.114;13.666;2023-01-29T08:40:21;66756.56;;;-3.59;100.00
36354;BME280;22383;51.114;13.666;2023-01-29T08:42:48;66808.38;;;-3.52;100.00
36354;BME280;22383;51.114;13.666;2023-01-29T08:45:16;66804.59;;;-3.61;100.00
36354;BME280;22383;51.114;13.666;2023-01-29T08:47:44;66796.94;;;-3.65;100.00
36354;BME280;22383;51.114;13.666;2023-01-29T08:50:11;66800.66;;;-3.64;100.00
36354;BME280;22383;51.114;13.666;2023-01-29T08:52:38;66798.63;;;-3.64;100.00
36354;BME280;22383;51.114;13.666;2023-01-29T08:55:05;66808.72;;;-3.54;100.00
36354;BME280;22383;51.114;13.666;2023-01-29T08:57:33;66819.91;;;-3.44;100.00
36354;BME280;22383;51.114;13.666;2023-01-29T09:00:00;66831.13;;;-3.34;100.00
36354;BME280;22383;51.114;13.666;2023-01-29T09:02:27;66841.97;;;-3.21;100.00
36354;BME280;22383;51.114;13.666;2023-01-29T09:04:54;66845.91;;;-3.18;100.00
36354;BME280;22383;51.114;13.666;2023-01-29T09:07:21;66854.88;;;-3.10;100.00
36354;BME280;22383;51.114;13.666;2023-01-29T09:09:49;66864.41;;;-3.01;100.00
36354;BME280;22383;51.114;13.666;2023-01-29T09:12:16;66874.28;;;-2.94;100.00
36354;BME280;22383;51.114;13.666;2023-01-29T09:14:43;66880.28;;;-2.84;100.00
36354;BME280;22383;51.114;13.666;2023-01-29T09:17:10;66862.16;;;-3.03;100.00
36354;BME280;22383;51.114;13.666;2023-01-29T09:19:37;66864.53;;;-3.06;100.00
36354;BME280;22383;51.114;13.666;2023-01-29T09:22:05;66874.06;;;-2.97;100.00
36354;BME280;22383;51.114;13.666;2023-01-29T09:24:32;66880.66;;;-2.86;100.00
36354;BME280;22383;51.114;13.666;2023-01-29T09:27:00;66892.41;;;-2.75;100.00
36354;BME280;22383;51.114;13.666;2023-01-29T09:29:28;66894.31;;;-2.71;100.00
36354;BME280;22383;51.114;13.666;2023-01-29T09:31:55;66888.63;;;-2.83;100.00
36354;BME280;22383;51.114;13.666;2023-01-29T09:34:22;66894.66;;;-2.73;100.00
36354;BME280;22383;51.114;13.666;2023-01-29T09:36:50;66888.28;;;-2.81;100.00
36354;BME280;22383;51.114;13.666;2023-01-29T09:39:17;66891.84;;;-2.76;100.00
36354;BME280;22383;51.114;13.666;2023-01-29T09:47:20;66879.53;;;-2.87;100.00
36354;BME280;22383;51.114;13.666;2023-01-29T09:49:59;66883.47;;;-2.83;100.00
36354;BME280;22383;51.114;13.666;2023-01-29T09:57:40;66923.59;;;-2.49;100.00
36354;BME280;22383;51.114;13.666;2023-01-29T10:00:23;66914.84;;;-2.55;100.00
36354;BME280;22383;51.114;13.666;2023-01-29T10:13:21;66896.34;;;-2.72;100.00
36354;BME280;22383;51.114;13.666;2023-01-29T10:18:32;66878.75;;;-2.90;100.00
36354;BME280;22383;51.114;13.666;2023-01-29T10:23:57;66874.84;;;-2.94;100.00
36354;BME280;22383;51.114;13.666;2023-01-29T10:26:28;66884.91;;;-2.85;100.00
36354;BME280;22383;51.114;13.666;2023-01-29T10:28:57;66880.09;;;-2.87;100.00
36354;BME280;22383;51.114;13.666;2023-01-29T10:34:00;66862.72;;;-3.02;100.00
36354;BME280;22383;51.114;13.666;2023-01-29T10:39:01;66864.41;;;-3.01;100.00
36354;BME280;22383;51.114;13.666;2023-01-29T10:41:43;66867.91;;;-3.02;100.00
36354;BME280;22383;51.114;13.666;2023-01-29T10:52:15;66900.06;;;-2.71;100.00
36354;BME280;22383;51.114;13.666;2023-01-29T10:54:50;66917.66;;;-2.52;100.00
36354;BME280;22383;51.114;13.666;2023-01-29T11:02:20;66928.66;;;-2.44;100.00
36354;BME280;22383;51.114;13.666;2023-01-29T11:04:48;66912.41;;;-2.59;100.00
36354;BME280;22383;51.114;13.666;2023-01-29T11:07:17;66920.09;;;-2.48;100.00
36354;BME280;22383;51.114;13.666;2023-01-29T11:12:21;66924.38;;;-2.46;100.00
36354;BME280;22383;51.114;13.666;2023-01-29T11:15:00;66917.84;;;-2.50;100.00
36354;BME280;22383;51.114;13.666;2023-01-29T11:17:32;66929.06;;;-2.39;100.00
36354;BME280;22383;51.114;13.666;2023-01-29T11:19:59;66942.53;;;-2.27;100.00
36354;BME280;22383;51.114;13.666;2023-01-29T11:22:27;66951.44;;;-2.26;100.00
36354;BME280;22383;51.114;13.666;2023-01-29T11:27:56;66961.41;;;-2.12;100.00
36354;BME280;22383;51.114;13.666;2023-01-29T11:30:34;66970.91;;;-2.03;100.00
36354;BME280;22383;51.114;13.666;2023-01-29T11:35:36;66993.72;;;-1.85;100.00
36354;BME280;22383;51.114;13.666;2023-01-29T11:40:50;66985.84;;;-1.92;100.00
36354;BME280;22383;51.114;13.666;2023-01-29T11:45:45;66970.50;;;-2.08;100.00
36354;BME280;22383;51.114;13.666;2023-01-29T11:48:13;66935.03;;;-1.98;100.00
36354;BME280;22383;51.114;13.666;2023-01-29T11:50:41;66981.38;;;-1.96;100.00
36354;BME280;22383;51.114;13.666;2023-01-29T11:53:22;66979.53;;;-1.93;100.00
36354;BME280;22383;51.114;13.666;2023-01-29T11:55:51;66973.50;;;-2.03;100.00
36354;BME280;22383;51.114;13.666;2023-01-29T11:58:24;66964.97;;;-2.06;100.00
36354;BME280;22383;51.114;13.666;2023-01-29T12:00:53;66960.63;;;-2.15;100.00
36354;BME280;22383;51.114;13.666;2023-01-29T12:03:23;66964.91;;;-2.14;100.00
36354;BME280;22383;51.114;13.666;2023-01-29T12:05:55;66965.66;;;-2.11;100.00
36354;BME280;22383;51.114;13.666;2023-01-29T12:08:24;66958.22;;;-2.13;100.00
36354;BME280;22383;51.114;13.666;2023-01-29T12:11:05;66974.28;;;-2.00;100.00
36354;BME280;22383;51.114;13.666;2023-01-29T12:13:36;66981.38;;;-1.96;100.00
36354;BME280;22383;51.114;13.666;2023-01-29T12:16:16;66975.06;;;-1.97;100.00
36354;BME280;22383;51.114;13.666;2023-01-29T12:21:29;66988.53;;;-1.85;100.00
36354;BME280;22383;51.114;13.666;2023-01-29T12:24:01;66994.84;;;-1.84;100.00
36354;BME280;22383;51.114;13.666;2023-01-29T12:26:33;67003.69;;;-1.71;100.00
36354;BME280;22383;51.114;13.666;2023-01-29T12:31:43;67001.22;;;-1.76;100.00
36354;BME280;22383;51.114;13.666;2023-01-29T12:34:23;67009.41;;;-1.71;100.00
36354;BME280;22383;51.114;13.666;2023-01-29T12:37:02;67000.66;;;-1.76;100.00
36354;BME280;22383;51.114;13.666;2023-01-29T12:39:47;67013.13;;;-1.69;100.00
36354;BME280;22383;51.114;13.666;2023-01-29T12:44:50;67033.00;;;-1.49;100.00
36354;BME280;22383;51.114;13.666;2023-01-29T12:47:23;67034.88;;;-1.45;100.00
36354;BME280;22383;51.114;13.666;2023-01-29T12:49:54;67019.19;;;-1.59;100.00
36354;BME280;22383;51.114;13.666;2023-01-29T12:55:21;67018.06;;;-1.60;100.00
36354;BME280;22383;51.114;13.666;2023-01-29T12:57:52;67025.34;;;-1.54;100.00
36354;BME280;22383;51.114;13.666;2023-01-29T13:00:31;67018.81;;;-1.57;100.00
36354;BME280;22383;51.114;13.666;2023-01-29T13:05:44;67034.88;;;-1.45;100.00
36354;BME280;22383;51.114;13.666;2023-01-29T13:10:50;67032.44;;;-1.49;100.00
36354;BME280;22383;51.114;13.666;2023-01-29T13:15:58;67044.97;;;-1.36;100.00
36354;BME280;22383;51.114;13.666;2023-01-29T13:21:00;67042.19;;;-1.38;100.00
36354;BME280;22383;51.114;13.666;2023-01-29T13:23:38;67046.13;;;-1.35;100.00
36354;BME280;22383;51.114;13.666;2023-01-29T13:26:06;67031.50;;;-1.48;100.00
36354;BME280;22383;51.114;13.666;2023-01-29T13:28:33;67027.38;;;-1.54;100.00
36354;BME280;22383;51.114;13.666;2023-01-29T13:36:45;67019.72;;;-1.59;100.00
36354;BME280;22383;51.114;13.666;2023-01-29T13:39:24;67017.50;;;-1.61;100.00
36354;BME280;22383;51.114;13.666;2023-01-29T13:41:53;67010.19;;;-1.67;100.00
36354;BME280;22383;51.114;13.666;2023-01-29T13:44:22;67010.00;;;-1.70;100.00
36354;BME280;22383;51.114;13.666;2023-01-29T13:46:57;67002.34;;;-1.75;100.00
36354;BME280;22383;51.114;13.666;2023-01-29T13:49:28;67006.97;;;-1.75;100.00
36354;BME280;22383;51.114;13.666;2023-01-29T13:51:58;66997.09;;;-1.82;100.00
36354;BME280;22383;51.114;13.666;2023-01-29T13:54:26;66987.97;;;-1.85;100.00
36354;BME280;22383;51.114;13.666;2023-01-29T13:59:22;66988.31;;;-1.87;100.00
36354;BME280;22383;51.114;13.666;2023-01-29T14:06:48;66995.41;;;-1.83;100.00
36354;BME280;22383;51.114;13.666;2023-01-29T14:09:32;66953.00;;;-1.82;100.00
36354;BME280;22383;51.114;13.666;2023-01-29T14:12:00;66996.19;;;-1.80;100.00
36354;BME280;22383;51.114;13.666;2023-01-29T14:17:16;67000.66;;;-1.76;100.00
36354;BME280;22383;51.114;13.666;2023-01-29T14:19:48;67006.03;;;-1.74;100.00
36354;BME280;22383;51.114;13.666;2023-01-29T14:22:22;67013.00;;;-1.65;100.00
36354;BME280;22383;51.114;13.666;2023-01-29T14:24:58;67014.91;;;-1.61;100.00
36354;BME280;22383;51.114;13.666;2023-01-29T14:27:27;67007.03;;;-1.68;100.00
36354;BME280;22383;51.114;13.666;2023-01-29T14:30:04;67010.19;;;-1.67;100.00
36354;BME280;22383;51.114;13.666;2023-01-29T14:32:32;67010.19;;;-1.67;100.00
36354;BME280;22383;51.114;13.666;2023-01-29T14:39:58;67008.31;;;-1.72;100.00
36354;BME280;22383;51.114;13.666;2023-01-29T14:42:37;67009.78;;;-1.73;100.00
36354;BME280;22383;51.114;13.666;2023-01-29T14:50:01;67000.44;;;-1.79;100.00
36354;BME280;22383;51.114;13.666;2023-01-29T14:52:39;66993.91;;;-1.82;100.00
36354;BME280;22383;51.114;13.666;2023-01-29T14:55:08;66989.09;;;-1.84;100.00
36354;BME280;22383;51.114;13.666;2023-01-29T14:57:36;66991.13;;;-1.85;100.00
36354;BME280;22383;51.114;13.666;2023-01-29T15:00:05;66995.94;;;-1.83;100.00
36354;BME280;22383;51.114;13.666;2023-01-29T15:02:40;66998.41;;;-1.78;100.00
36354;BME280;22383;51.114;13.666;2023-01-29T15:05:10;66993.34;;;-1.83;100.00
36354;BME280;22383;51.114;13.666;2023-01-29T15:07:50;66987.97;;;-1.85;100.00
36354;BME280;22383;51.114;13.666;2023-01-29T15:18:36;66991.25;;;-1.90;100.00
36354;BME280;22383;51.114;13.666;2023-01-29T15:21:10;66991.91;;;-1.82;100.00
36354;BME280;22383;51.114;13.666;2023-01-29T15:23:37;66982.91;;;-1.90;100.00
36354;BME280;22383;51.114;13.666;2023-01-29T15:26:09;66988.09;;;-1.90;100.00
36354;BME280;22383;51.114;13.666;2023-01-29T15:28:42;66978.44;;;-1.94;100.00
36354;BME280;22383;51.114;13.666;2023-01-29T15:31:15;66988.31;;;-1.87;100.00
36354;BME280;22383;51.114;13.666;2023-01-29T15:33:44;66971.50;;;-2.03;100.00
36354;BME280;22383;51.114;13.666;2023-01-29T15:36:17;66966.78;;;-2.10;100.00
36354;BME280;22383;51.114;13.666;2023-01-29T15:38:46;66959.28;;;-2.19;100.00
36354;BME280;22383;51.114;13.666;2023-01-29T15:41:20;66951.44;;;-2.26;100.00
36354;BME280;22383;51.114;13.666;2023-01-29T15:43:50;66950.31;;;-2.27;100.00
36354;BME280;22383;51.114;13.666;2023-01-29T15:46:26;66943.44;;;-2.29;100.00